sensor_id;sensor_type;location;lat;lon;timestamp;pressure;altitude;pressure_sealevel;temperature;humidity
81387;BME280;70842;50.744;7.114;2024-03-08T00:02:12;101217.56;;;9.44;43.75
81387;BME280;70842;50.744;7.114;2024-03-08T00:04:39;101214.72;;;9.35;44.13
81387;BME280;70842;50.744;7.114;2024-03-08T00:07:05;101202.00;;;9.40;43.56
81387;BME280;70842;50.744;7.114;2024-03-08T00:09:33;101210.03;;;9.26;44.08
81387;BME280;70842;50.744;7.114;2024-03-08T00:11:59;101207.09;;;9.04;44.34
81387;BME280;70842;50.744;7.114;2024-03-08T00:14:26;101207.91;;;9.31;44.25
81387;BME280;70842;50.744;7.114;2024-03-08T00:16:52;101204.84;;;9.24;44.29
81387;BME280;70842;50.744;7.114;2024-03-08T00:19:20;101211.00;;;9.37;44.58
81387;BME280;70842;50.744;7.114;2024-03-08T00:21:46;101207.38;;;9.26;44.21
81387;BME280;70842;50.744;7.114;2024-03-08T00:24:13;101197.22;;;9.20;44.73
81387;BME280;70842;50.744;7.114;2024-03-08T00:26:39;101207.53;;;9.10;44.46
81387;BME280;70842;50.744;7.114;2024-03-08T00:29:06;101196.78;;;9.13;44.45
81387;BME280;70842;50.744;7.114;2024-03-08T00:31:34;101198.47;;;9.14;45.15
81387;BME280;70842;50.744;7.114;2024-03-08T00:34:00;101194.84;;;9.03;45.42
81387;BME280;70842;50.744;7.114;2024-03-08T00:36:26;101197.50;;;9.03;44.78
81387;BME280;70842;50.744;7.114;2024-03-08T00:38:53;101198.69;;;8.85;45.51
81387;BME280;70842;50.744;7.114;2024-03-08T00:41:19;101197.06;;;8.96;45.09
81387;BME280;70842;50.744;7.114;2024-03-08T00:43:46;101185.03;;;9.05;45.01
81387;BME280;70842;50.744;7.114;2024-03-08T00:46:13;101192.03;;;8.79;45.71
81387;BME280;70842;50.744;7.114;2024-03-08T00:48:41;101188.59;;;8.64;45.76
81387;BME280;70842;50.744;7.114;2024-03-08T00:51:09;101164.47;;;8.56;46.15
81387;BME280;70842;50.744;7.114;2024-03-08T00:53:36;101177.50;;;8.72;45.53
81387;BME280;70842;50.744;7.114;2024-03-08T00:56:02;101179.06;;;8.62;45.92
81387;BME280;70842;50.744;7.114;2024-03-08T00:58:30;101173.25;;;8.70;45.70
81387;BME280;70842;50.744;7.114;2024-03-08T01:00:56;101172.66;;;8.79;45.16
81387;BME280;70842;50.744;7.114;2024-03-08T01:03:23;101176.94;;;8.94;45.56
81387;BME280;70842;50.744;7.114;2024-03-08T01:05:53;101170.84;;;8.67;45.73
81387;BME280;70842;50.744;7.114;2024-03-08T01:08:19;101164.25;;;8.59;46.19
81387;BME280;70842;50.744;7.114;2024-03-08T01:10:45;101159.00;;;8.72;45.93
81387;BME280;70842;50.744;7.114;2024-03-08T01:13:12;101152.88;;;8.72;46.01
81387;BME280;70842;50.744;7.114;2024-03-08T01:15:38;101150.50;;;8.54;46.21
81387;BME280;70842;50.744;7.114;2024-03-08T01:18:08;101138.97;;;8.55;46.01
81387;BME280;70842;50.744;7.114;2024-03-08T01:20:34;101142.81;;;8.37;45.96
81387;BME280;70842;50.744;7.114;2024-03-08T01:23:01;101140.53;;;8.45;46.32
81387;BME280;70842;50.744;7.114;2024-03-08T01:25:27;101136.41;;;8.41;46.68
81387;BME280;70842;50.744;7.114;2024-03-08T01:27:54;101137.59;;;8.50;46.36
81387;BME280;70842;50.744;7.114;2024-03-08T01:30:20;101142.47;;;8.56;46.61
81387;BME280;70842;50.744;7.114;2024-03-08T01:32:47;101135.28;;;8.31;47.19
81387;BME280;70842;50.744;7.114;2024-03-08T01:35:14;101131.59;;;8.34;46.62
81387;BME280;70842;50.744;7.114;2024-03-08T01:37:40;101123.22;;;8.27;47.09
81387;BME280;70842;50.744;7.114;2024-03-08T01:40:07;101129.25;;;8.29;47.01
81387;BME280;70842;50.744;7.114;2024-03-08T01:42:35;101106.25;;;8.17;47.07
81387;BME280;70842;50.744;7.114;2024-03-08T01:45:05;101117.16;;;8.39;46.63
81387;BME280;70842;50.744;7.114;2024-03-08T01:47:32;101108.44;;;8.11;47.00
81387;BME280;70842;50.744;7.114;2024-03-08T01:50:00;101120.16;;;7.93;47.31
81387;BME280;70842;50.744;7.114;2024-03-08T01:52:29;101109.94;;;8.15;46.79
81387;BME280;70842;50.744;7.114;2024-03-08T01:55:01;101109.28;;;8.11;46.94
81387;BME280;70842;50.744;7.114;2024-03-08T01:57:31;101102.75;;;7.76;48.22
81387;BME280;70842;50.744;7.114;2024-03-08T02:00:00;101102.94;;;7.73;48.19
81387;BME280;70842;50.744;7.114;2024-03-08T02:02:32;101092.25;;;8.03;47.65
81387;BME280;70842;50.744;7.114;2024-03-08T02:05:00;101095.97;;;7.86;47.52
81387;BME280;70842;50.744;7.114;2024-03-08T02:07:27;101094.94;;;8.15;47.28
81387;BME280;70842;50.744;7.114;2024-03-08T02:09:53;101088.56;;;8.05;47.32
81387;BME280;70842;50.744;7.114;2024-03-08T02:12:20;101088.56;;;8.05;46.91
81387;BME280;70842;50.744;7.114;2024-03-08T02:14:47;101088.72;;;8.16;46.80
81387;BME280;70842;50.744;7.114;2024-03-08T02:17:13;101084.38;;;8.15;47.14
81387;BME280;70842;50.744;7.114;2024-03-08T02:19:40;101073.66;;;8.18;46.94
81387;BME280;70842;50.744;7.114;2024-03-08T02:22:06;101088.72;;;8.16;46.84
81387;BME280;70842;50.744;7.114;2024-03-08T02:24:33;101084.00;;;8.21;46.75
81387;BME280;70842;50.744;7.114;2024-03-08T02:26:59;101079.72;;;7.92;47.92
81387;BME280;70842;50.744;7.114;2024-03-08T02:29:26;101067.56;;;7.89;47.83
81387;BME280;70842;50.744;7.114;2024-03-08T02:31:53;101082.31;;;8.20;47.10
81387;BME280;70842;50.744;7.114;2024-03-08T02:34:19;101073.97;;;8.00;47.55
81387;BME280;70842;50.744;7.114;2024-03-08T02:36:46;101072.34;;;8.11;47.35
81387;BME280;70842;50.744;7.114;2024-03-08T02:39:13;101070.94;;;8.06;47.11
81387;BME280;70842;50.744;7.114;2024-03-08T02:41:39;101064.25;;;8.00;47.18
81387;BME280;70842;50.744;7.114;2024-03-08T02:44:06;101061.78;;;8.11;47.24
81387;BME280;70842;50.744;7.114;2024-03-08T02:46:33;101062.00;;;8.21;46.64
81387;BME280;70842;50.744;7.114;2024-03-08T02:49:02;101054.03;;;8.08;47.32
81387;BME280;70842;50.744;7.114;2024-03-08T02:51:29;101039.75;;;7.98;47.23
81387;BME280;70842;50.744;7.114;2024-03-08T02:53:55;101057.97;;;8.29;46.75
81387;BME280;70842;50.744;7.114;2024-03-08T02:56:22;101063.72;;;8.22;47.07
81387;BME280;70842;50.744;7.114;2024-03-08T02:58:48;101058.56;;;8.06;46.76
81387;BME280;70842;50.744;7.114;2024-03-08T03:01:15;101053.31;;;8.06;47.03
81387;BME280;70842;50.744;7.114;2024-03-08T03:03:42;101050.94;;;8.02;47.13
81387;BME280;70842;50.744;7.114;2024-03-08T03:06:08;101053.97;;;8.10;47.37
81387;BME280;70842;50.744;7.114;2024-03-08T03:08:35;101058.44;;;8.22;46.99
81387;BME280;70842;50.744;7.114;2024-03-08T03:11:01;101048.38;;;8.28;46.13
81387;BME280;70842;50.744;7.114;2024-03-08T03:13:28;101047.03;;;8.35;46.32
81387;BME280;70842;50.744;7.114;2024-03-08T03:15:55;101050.09;;;8.42;45.92
81387;BME280;70842;50.744;7.114;2024-03-08T03:18:24;101047.38;;;8.03;47.39
81387;BME280;70842;50.744;7.114;2024-03-08T03:20:52;101043.84;;;7.89;47.20
81387;BME280;70842;50.744;7.114;2024-03-08T03:23:18;101041.19;;;8.04;46.96
81387;BME280;70842;50.744;7.114;2024-03-08T03:25:47;101034.13;;;7.90;46.99
81387;BME280;70842;50.744;7.114;2024-03-08T03:28:13;101035.53;;;7.96;47.11
81387;BME280;70842;50.744;7.114;2024-03-08T03:30:46;101033.56;;;7.85;48.11
81387;BME280;70842;50.744;7.114;2024-03-08T03:33:13;101042.09;;;8.03;47.07
81387;BME280;70842;50.744;7.114;2024-03-08T03:35:42;101035.44;;;8.24;46.33
81387;BME280;70842;50.744;7.114;2024-03-08T03:38:09;101031.66;;;8.01;46.57
81387;BME280;70842;50.744;7.114;2024-03-08T03:40:38;101033.25;;;8.04;46.75
81387;BME280;70842;50.744;7.114;2024-03-08T03:43:06;101036.47;;;7.95;47.39
81387;BME280;70842;50.744;7.114;2024-03-08T03:45:33;101034.34;;;8.14;46.65
81387;BME280;70842;50.744;7.114;2024-03-08T03:48:04;101012.78;;;8.07;46.60
81387;BME280;70842;50.744;7.114;2024-03-08T03:50:31;101023.03;;;7.85;48.02
81387;BME280;70842;50.744;7.114;2024-03-08T03:53:01;101018.66;;;7.98;47.70
81387;BME280;70842;50.744;7.114;2024-03-08T03:55:28;101018.66;;;7.98;47.41
81387;BME280;70842;50.744;7.114;2024-03-08T03:57:55;101020.19;;;7.88;47.41
81387;BME280;70842;50.744;7.114;2024-03-08T04:00:21;101027.19;;;7.75;47.79
81387;BME280;70842;50.744;7.114;2024-03-08T04:02:48;101021.38;;;7.56;48.68
81387;BME280;70842;50.744;7.114;2024-03-08T04:05:15;101000.50;;;7.39;48.65
81387;BME280;70842;50.744;7.114;2024-03-08T04:07:41;101012.91;;;7.51;48.50
81387;BME280;70842;50.744;7.114;2024-03-08T04:10:08;101017.97;;;7.68;48.65
81387;BME280;70842;50.744;7.114;2024-03-08T04:12:35;101016.22;;;7.54;48.58
81387;BME280;70842;50.744;7.114;2024-03-08T04:15:01;101017.81;;;7.57;48.33
81387;BME280;70842;50.744;7.114;2024-03-08T04:17:28;101011.41;;;7.61;48.21
81387;BME280;70842;50.744;7.114;2024-03-08T04:19:55;101012.53;;;7.57;48.96
81387;BME280;70842;50.744;7.114;2024-03-08T04:22:21;101017.53;;;7.19;49.90
81387;BME280;70842;50.744;7.114;2024-03-08T04:24:48;101006.72;;;7.38;48.81
81387;BME280;70842;50.744;7.114;2024-03-08T04:27:15;101002.41;;;7.23;49.08
81387;BME280;70842;50.744;7.114;2024-03-08T04:29:41;100999.94;;;7.48;48.06
81387;BME280;70842;50.744;7.114;2024-03-08T04:32:08;101001.72;;;7.47;48.18
81387;BME280;70842;50.744;7.114;2024-03-08T04:34:35;100997.78;;;7.26;48.77
81387;BME280;70842;50.744;7.114;2024-03-08T04:37:02;100994.38;;;7.52;48.38
81387;BME280;70842;50.744;7.114;2024-03-08T04:39:31;100999.56;;;7.40;48.68
81387;BME280;70842;50.744;7.114;2024-03-08T04:42:02;101001.63;;;7.35;48.96
81387;BME280;70842;50.744;7.114;2024-03-08T04:44:37;100996.25;;;7.36;48.54
81387;BME280;70842;50.744;7.114;2024-03-08T04:47:06;100996.19;;;7.38;48.94
81387;BME280;70842;50.744;7.114;2024-03-08T04:49:33;100996.28;;;7.22;48.74
81387;BME280;70842;50.744;7.114;2024-03-08T04:52:03;100994.75;;;7.32;48.77
81387;BME280;70842;50.744;7.114;2024-03-08T04:54:30;100984.69;;;7.39;48.82
81387;BME280;70842;50.744;7.114;2024-03-08T04:56:57;100988.44;;;7.49;48.41
81387;BME280;70842;50.744;7.114;2024-03-08T04:59:26;100985.06;;;7.33;48.86
81387;BME280;70842;50.744;7.114;2024-03-08T05:01:53;100983.56;;;7.29;49.50
81387;BME280;70842;50.744;7.114;2024-03-08T05:04:20;100978.88;;;7.05;49.38
81387;BME280;70842;50.744;7.114;2024-03-08T05:06:47;100985.09;;;7.19;48.95
81387;BME280;70842;50.744;7.114;2024-03-08T05:09:14;100982.16;;;7.37;48.52
81387;BME280;70842;50.744;7.114;2024-03-08T05:11:45;100984.69;;;7.39;48.65
81387;BME280;70842;50.744;7.114;2024-03-08T05:14:14;100981.78;;;7.29;48.70
81387;BME280;70842;50.744;7.114;2024-03-08T05:16:44;100973.78;;;7.31;48.90
81387;BME280;70842;50.744;7.114;2024-03-08T05:19:15;100975.75;;;7.13;48.79
81387;BME280;70842;50.744;7.114;2024-03-08T05:21:44;100963.72;;;7.37;48.15
81387;BME280;70842;50.744;7.114;2024-03-08T05:24:11;100969.22;;;7.47;48.30
81387;BME280;70842;50.744;7.114;2024-03-08T05:26:38;100968.00;;;7.38;48.54
81387;BME280;70842;50.744;7.114;2024-03-08T05:29:04;100968.25;;;7.07;49.04
81387;BME280;70842;50.744;7.114;2024-03-08T05:31:37;100963.47;;;6.99;49.28
81387;BME280;70842;50.744;7.114;2024-03-08T05:34:07;100964.13;;;6.89;49.27
81387;BME280;70842;50.744;7.114;2024-03-08T05:36:36;100973.03;;;6.86;50.25
81387;BME280;70842;50.744;7.114;2024-03-08T05:39:02;100966.63;;;7.04;49.89
81387;BME280;70842;50.744;7.114;2024-03-08T05:41:32;100961.09;;;6.95;49.17
81387;BME280;70842;50.744;7.114;2024-03-08T05:43:59;100971.06;;;7.18;49.24
81387;BME280;70842;50.744;7.114;2024-03-08T05:46:25;100964.16;;;7.30;48.80
81387;BME280;70842;50.744;7.114;2024-03-08T05:48:51;100971.25;;;7.15;49.70
81387;BME280;70842;50.744;7.114;2024-03-08T05:51:19;100961.00;;;7.25;48.91
81387;BME280;70842;50.744;7.114;2024-03-08T05:53:47;100956.41;;;7.14;49.17
81387;BME280;70842;50.744;7.114;2024-03-08T05:56:14;100953.09;;;6.96;49.48
81387;BME280;70842;50.744;7.114;2024-03-08T05:58:40;100956.47;;;7.13;49.27
81387;BME280;70842;50.744;7.114;2024-03-08T06:01:06;100955.81;;;7.09;49.01
81387;BME280;70842;50.744;7.114;2024-03-08T06:03:34;100948.00;;;7.22;48.95
81387;BME280;70842;50.744;7.114;2024-03-08T06:06:00;100945.38;;;7.07;49.64
81387;BME280;70842;50.744;7.114;2024-03-08T06:08:27;100947.06;;;7.08;49.22
81387;BME280;70842;50.744;7.114;2024-03-08T06:10:56;100952.44;;;7.07;50.03
81387;BME280;70842;50.744;7.114;2024-03-08T06:13:22;100954.22;;;7.06;49.60
81387;BME280;70842;50.744;7.114;2024-03-08T06:15:51;100938.69;;;7.02;49.43
81387;BME280;70842;50.744;7.114;2024-03-08T06:18:17;100941.63;;;7.12;49.92
81387;BME280;70842;50.744;7.114;2024-03-08T06:20:44;100939.38;;;7.05;49.37
81387;BME280;70842;50.744;7.114;2024-03-08T06:23:12;100945.38;;;6.93;49.40
81387;BME280;70842;50.744;7.114;2024-03-08T06:25:38;100930.06;;;6.86;50.02
81387;BME280;70842;50.744;7.114;2024-03-08T06:28:05;100941.63;;;6.97;49.71
81387;BME280;70842;50.744;7.114;2024-03-08T06:30:31;100935.31;;;7.00;49.67
81387;BME280;70842;50.744;7.114;2024-03-08T06:33:01;100940.22;;;7.06;49.57
81387;BME280;70842;50.744;7.114;2024-03-08T06:35:28;100932.78;;;6.98;49.34
81387;BME280;70842;50.744;7.114;2024-03-08T06:38:01;100926.94;;;6.93;49.79
81387;BME280;70842;50.744;7.114;2024-03-08T06:40:27;100925.25;;;6.92;49.67
81387;BME280;70842;50.744;7.114;2024-03-08T06:42:53;100936.16;;;7.15;49.56
81387;BME280;70842;50.744;7.114;2024-03-08T06:45:20;100936.41;;;7.24;49.65
81387;BME280;70842;50.744;7.114;2024-03-08T06:47:47;100928.78;;;7.34;49.96
81387;BME280;70842;50.744;7.114;2024-03-08T06:50:14;100927.31;;;7.56;48.50
81387;BME280;70842;50.744;7.114;2024-03-08T06:52:41;100918.06;;;7.63;48.26
81387;BME280;70842;50.744;7.114;2024-03-08T06:55:12;100937.41;;;7.76;48.34
81387;BME280;70842;50.744;7.114;2024-03-08T06:57:39;100930.94;;;7.68;48.13
81387;BME280;70842;50.744;7.114;2024-03-08T07:00:09;100933.53;;;7.82;48.34
81387;BME280;70842;50.744;7.114;2024-03-08T07:02:38;100931.72;;;7.82;47.72
81387;BME280;70842;50.744;7.114;2024-03-08T07:05:06;100928.81;;;8.00;47.41
81387;BME280;70842;50.744;7.114;2024-03-08T07:07:36;100934.63;;;7.92;47.34
81387;BME280;70842;50.744;7.114;2024-03-08T07:10:03;100923.28;;;7.77;47.74
81387;BME280;70842;50.744;7.114;2024-03-08T07:12:30;100927.41;;;7.81;47.92
81387;BME280;70842;50.744;7.114;2024-03-08T07:14:57;100924.06;;;7.92;48.44
81387;BME280;70842;50.744;7.114;2024-03-08T07:17:23;100926.44;;;8.09;47.72
81387;BME280;70842;50.744;7.114;2024-03-08T07:19:51;100917.63;;;8.23;47.34
81387;BME280;70842;50.744;7.114;2024-03-08T07:22:17;100920.13;;;8.12;47.63
81387;BME280;70842;50.744;7.114;2024-03-08T07:24:43;100910.38;;;8.12;47.71
81387;BME280;70842;50.744;7.114;2024-03-08T07:27:12;100918.09;;;8.15;47.43
81387;BME280;70842;50.744;7.114;2024-03-08T07:29:39;100913.94;;;8.38;47.33
81387;BME280;70842;50.744;7.114;2024-03-08T07:32:05;100898.22;;;8.36;47.12
81387;BME280;70842;50.744;7.114;2024-03-08T07:34:38;100901.41;;;8.41;46.64
81387;BME280;70842;50.744;7.114;2024-03-08T07:37:06;100898.25;;;8.10;47.43
81387;BME280;70842;50.744;7.114;2024-03-08T07:39:38;100905.34;;;8.22;47.43
81387;BME280;70842;50.744;7.114;2024-03-08T07:42:05;100889.69;;;8.06;47.73
81387;BME280;70842;50.744;7.114;2024-03-08T07:44:31;100891.91;;;8.12;48.37
81387;BME280;70842;50.744;7.114;2024-03-08T07:46:59;100885.31;;;7.80;48.53
81387;BME280;70842;50.744;7.114;2024-03-08T07:49:25;100883.41;;;7.55;49.30
81387;BME280;70842;50.744;7.114;2024-03-08T07:51:52;100883.50;;;7.80;48.89
81387;BME280;70842;50.744;7.114;2024-03-08T07:54:18;100865.88;;;8.20;48.39
81387;BME280;70842;50.744;7.114;2024-03-08T07:56:44;100882.59;;;8.58;47.57
81387;BME280;70842;50.744;7.114;2024-03-08T07:59:11;100876.03;;;8.39;48.14
81387;BME280;70842;50.744;7.114;2024-03-08T08:01:38;100865.97;;;8.82;47.18
81387;BME280;70842;50.744;7.114;2024-03-08T08:04:04;100868.94;;;8.77;47.29
81387;BME280;70842;50.744;7.114;2024-03-08T08:06:31;100865.84;;;8.96;47.43
81387;BME280;70842;50.744;7.114;2024-03-08T08:09:01;100861.78;;;9.15;46.61
81387;BME280;70842;50.744;7.114;2024-03-08T08:11:27;100854.53;;;9.30;46.49
81387;BME280;70842;50.744;7.114;2024-03-08T08:13:55;100852.09;;;9.27;46.39
81387;BME280;70842;50.744;7.114;2024-03-08T08:16:27;100839.91;;;9.13;47.19
81387;BME280;70842;50.744;7.114;2024-03-08T08:18:54;100843.44;;;9.49;46.72
81387;BME280;70842;50.744;7.114;2024-03-08T08:21:20;100843.13;;;9.53;50.05
81387;BME280;70842;50.744;7.114;2024-03-08T08:23:48;100828.66;;;9.46;50.53
81387;BME280;70842;50.744;7.114;2024-03-08T08:26:14;100825.91;;;10.17;52.02
81387;BME280;70842;50.744;7.114;2024-03-08T08:28:41;100821.38;;;10.63;45.72
81387;BME280;70842;50.744;7.114;2024-03-08T08:31:09;100822.78;;;10.12;44.88
81387;BME280;70842;50.744;7.114;2024-03-08T08:33:36;100808.22;;;10.29;45.54
81387;BME280;70842;50.744;7.114;2024-03-08T08:36:06;100814.00;;;10.23;45.74
81387;BME280;70842;50.744;7.114;2024-03-08T08:38:32;100798.47;;;10.29;45.33
81387;BME280;70842;50.744;7.114;2024-03-08T08:40:59;100799.34;;;10.30;45.25
81387;BME280;70842;50.744;7.114;2024-03-08T08:43:28;100792.84;;;10.45;44.71
81387;BME280;70842;50.744;7.114;2024-03-08T08:45:55;100795.06;;;10.05;44.57
81387;BME280;70842;50.744;7.114;2024-03-08T08:48:21;100799.59;;;10.71;43.58
81387;BME280;70842;50.744;7.114;2024-03-08T08:50:48;100787.06;;;10.51;43.86
81387;BME280;70842;50.744;7.114;2024-03-08T08:53:14;100785.56;;;10.91;43.32
81387;BME280;70842;50.744;7.114;2024-03-08T08:55:41;100785.34;;;10.72;43.63
81387;BME280;70842;50.744;7.114;2024-03-08T08:58:07;100790.84;;;11.13;43.20
81387;BME280;70842;50.744;7.114;2024-03-08T09:00:34;100785.44;;;11.35;42.96
81387;BME280;70842;50.744;7.114;2024-03-08T09:03:01;100780.81;;;10.52;43.84
81387;BME280;70842;50.744;7.114;2024-03-08T09:05:28;100777.38;;;10.94;43.06
81387;BME280;70842;50.744;7.114;2024-03-08T09:07:55;100773.00;;;11.04;43.01
81387;BME280;70842;50.744;7.114;2024-03-08T09:10:22;100778.13;;;11.28;42.12
81387;BME280;70842;50.744;7.114;2024-03-08T09:12:55;100778.22;;;11.69;41.51
81387;BME280;70842;50.744;7.114;2024-03-08T09:15:22;100768.09;;;11.84;41.67
81387;BME280;70842;50.744;7.114;2024-03-08T09:17:48;100762.34;;;11.99;40.64
81387;BME280;70842;50.744;7.114;2024-03-08T09:20:15;100761.19;;;11.92;40.41
81387;BME280;70842;50.744;7.114;2024-03-08T09:22:45;100745.03;;;11.74;41.11
81387;BME280;70842;50.744;7.114;2024-03-08T09:25:12;100756.47;;;11.43;41.45
81387;BME280;70842;50.744;7.114;2024-03-08T09:27:39;100760.72;;;11.03;41.73
81387;BME280;70842;50.744;7.114;2024-03-08T09:30:06;100759.09;;;11.23;41.59
81387;BME280;70842;50.744;7.114;2024-03-08T09:32:33;100741.25;;;11.45;40.85
81387;BME280;70842;50.744;7.114;2024-03-08T09:34:59;100734.41;;;11.43;41.10
81387;BME280;70842;50.744;7.114;2024-03-08T09:37:27;100730.75;;;11.75;40.12
81387;BME280;70842;50.744;7.114;2024-03-08T09:39:54;100730.88;;;11.95;40.26
81387;BME280;70842;50.744;7.114;2024-03-08T09:42:20;100724.91;;;11.82;40.28
81387;BME280;70842;50.744;7.114;2024-03-08T09:44:47;100724.03;;;12.22;39.70
81387;BME280;70842;50.744;7.114;2024-03-08T09:47:14;100727.03;;;11.88;40.49
81387;BME280;70842;50.744;7.114;2024-03-08T09:49:41;100721.66;;;11.99;39.57
81387;BME280;70842;50.744;7.114;2024-03-08T09:52:07;100713.69;;;12.59;39.00
81387;BME280;70842;50.744;7.114;2024-03-08T09:54:34;100712.75;;;12.30;39.39
81387;BME280;70842;50.744;7.114;2024-03-08T09:57:03;100714.13;;;12.74;39.41
81387;BME280;70842;50.744;7.114;2024-03-08T09:59:30;100708.31;;;13.27;37.81
81387;BME280;70842;50.744;7.114;2024-03-08T10:02:02;100704.53;;;13.30;37.67
81387;BME280;70842;50.744;7.114;2024-03-08T10:04:29;100707.69;;;12.76;37.95
81387;BME280;70842;50.744;7.114;2024-03-08T10:07:03;100695.94;;;12.98;37.73
81387;BME280;70842;50.744;7.114;2024-03-08T10:09:29;100693.94;;;12.52;38.45
81387;BME280;70842;50.744;7.114;2024-03-08T10:11:56;100697.31;;;12.73;37.82
81387;BME280;70842;50.744;7.114;2024-03-08T10:14:27;100686.75;;;13.11;37.57
81387;BME280;70842;50.744;7.114;2024-03-08T10:16:54;100686.75;;;13.50;36.85
81387;BME280;70842;50.744;7.114;2024-03-08T10:19:21;100675.97;;;13.32;37.26
81387;BME280;70842;50.744;7.114;2024-03-08T10:21:51;100681.84;;;13.55;36.46
81387;BME280;70842;50.744;7.114;2024-03-08T10:24:20;100670.94;;;13.19;37.26
81387;BME280;70842;50.744;7.114;2024-03-08T10:26:46;100672.91;;;13.17;37.12
81387;BME280;70842;50.744;7.114;2024-03-08T10:29:14;100677.75;;;12.74;38.13
81387;BME280;70842;50.744;7.114;2024-03-08T10:31:45;100662.81;;;13.11;37.54
81387;BME280;70842;50.744;7.114;2024-03-08T10:34:11;100663.47;;;12.94;37.71
81387;BME280;70842;50.744;7.114;2024-03-08T10:36:39;100666.00;;;12.86;37.15
81387;BME280;70842;50.744;7.114;2024-03-08T10:39:23;100663.09;;;12.89;37.35
81387;BME280;70842;50.744;7.114;2024-03-08T10:41:56;100655.63;;;12.83;36.91
81387;BME280;70842;50.744;7.114;2024-03-08T10:44:38;100657.63;;;13.19;37.70
81387;BME280;70842;50.744;7.114;2024-03-08T10:47:18;100647.81;;;12.82;37.75
81387;BME280;70842;50.744;7.114;2024-03-08T10:52:19;100651.88;;;13.24;36.99
81387;BME280;70842;50.744;7.114;2024-03-08T10:54:47;100633.97;;;13.36;36.89
81387;BME280;70842;50.744;7.114;2024-03-08T10:57:16;100635.56;;;13.65;37.16
81387;BME280;70842;50.744;7.114;2024-03-08T10:59:45;100639.53;;;12.75;37.31
81387;BME280;70842;50.744;7.114;2024-03-08T11:02:12;100624.59;;;13.12;37.16
81387;BME280;70842;50.744;7.114;2024-03-08T11:04:45;100633.78;;;13.56;36.30
81387;BME280;70842;50.744;7.114;2024-03-08T11:07:12;100616.81;;;13.94;36.22
81387;BME280;70842;50.744;7.114;2024-03-08T11:09:44;100619.63;;;14.20;36.02
81387;BME280;70842;50.744;7.114;2024-03-08T11:12:27;100614.22;;;14.12;36.37
81387;BME280;70842;50.744;7.114;2024-03-08T11:15:11;100617.94;;;14.91;34.53
81387;BME280;70842;50.744;7.114;2024-03-08T11:20:12;100605.13;;;13.77;36.09
81387;BME280;70842;50.744;7.114;2024-03-08T11:22:52;100584.25;;;14.00;35.29
81387;BME280;70842;50.744;7.114;2024-03-08T11:25:37;100598.22;;;13.84;35.85
81387;BME280;70842;50.744;7.114;2024-03-08T11:28:12;100595.22;;;13.97;35.57
81387;BME280;70842;50.744;7.114;2024-03-08T11:33:29;100582.41;;;14.72;34.63
81387;BME280;70842;50.744;7.114;2024-03-08T11:36:03;100584.78;;;14.75;34.25
81387;BME280;70842;50.744;7.114;2024-03-08T11:38:42;100582.63;;;14.97;34.90
81387;BME280;70842;50.744;7.114;2024-03-08T11:41:20;100578.69;;;15.26;32.84
81387;BME280;70842;50.744;7.114;2024-03-08T11:43:47;100570.84;;;15.50;35.46
81387;BME280;70842;50.744;7.114;2024-03-08T11:46:15;100572.31;;;16.04;33.46
81387;BME280;70842;50.744;7.114;2024-03-08T11:48:44;100560.03;;;16.35;32.14
81387;BME280;70842;50.744;7.114;2024-03-08T11:51:14;100573.63;;;16.50;35.55
81387;BME280;70842;50.744;7.114;2024-03-08T11:53:41;100562.31;;;16.22;31.59
81387;BME280;70842;50.744;7.114;2024-03-08T11:56:14;100558.09;;;16.54;32.24
81387;BME280;70842;50.744;7.114;2024-03-08T11:58:41;100549.84;;;16.39;31.80
81387;BME280;70842;50.744;7.114;2024-03-08T12:01:09;100542.72;;;16.96;32.16
81387;BME280;70842;50.744;7.114;2024-03-08T12:03:41;100543.75;;;16.71;31.59
81387;BME280;70842;50.744;7.114;2024-03-08T12:06:11;100546.06;;;16.82;30.97
81387;BME280;70842;50.744;7.114;2024-03-08T12:08:39;100523.47;;;16.52;30.71
81387;BME280;70842;50.744;7.114;2024-03-08T12:11:06;100526.38;;;16.09;30.47
81387;BME280;70842;50.744;7.114;2024-03-08T12:13:34;100540.06;;;16.06;30.35
81387;BME280;70842;50.744;7.114;2024-03-08T12:16:04;100522.00;;;16.58;31.30
81387;BME280;70842;50.744;7.114;2024-03-08T12:18:35;100520.19;;;16.08;29.91
81387;BME280;70842;50.744;7.114;2024-03-08T12:21:08;100516.38;;;16.19;31.53
81387;BME280;70842;50.744;7.114;2024-03-08T12:23:35;100523.59;;;16.42;30.43
81387;BME280;70842;50.744;7.114;2024-03-08T12:26:15;100516.75;;;15.82;31.45
81387;BME280;70842;50.744;7.114;2024-03-08T12:28:43;100507.88;;;16.31;30.44
81387;BME280;70842;50.744;7.114;2024-03-08T12:31:16;100509.91;;;17.18;29.88
81387;BME280;70842;50.744;7.114;2024-03-08T12:33:53;100500.38;;;17.07;29.00
81387;BME280;70842;50.744;7.114;2024-03-08T12:36:23;100495.06;;;17.70;29.11
81387;BME280;70842;50.744;7.114;2024-03-08T12:38:49;100496.78;;;17.94;28.57
81387;BME280;70842;50.744;7.114;2024-03-08T12:41:17;100489.03;;;17.60;28.70
81387;BME280;70842;50.744;7.114;2024-03-08T12:43:45;100489.63;;;17.32;29.45
81387;BME280;70842;50.744;7.114;2024-03-08T12:46:16;100482.75;;;18.15;28.80
81387;BME280;70842;50.744;7.114;2024-03-08T12:48:43;100491.72;;;18.30;27.95
81387;BME280;70842;50.744;7.114;2024-03-08T12:51:16;100472.69;;;18.62;27.65
81387;BME280;70842;50.744;7.114;2024-03-08T12:53:45;100480.31;;;18.73;27.29
81387;BME280;70842;50.744;7.114;2024-03-08T12:56:13;100455.59;;;18.40;27.07
81387;BME280;70842;50.744;7.114;2024-03-08T12:58:40;100474.50;;;17.93;29.17
81387;BME280;70842;50.744;7.114;2024-03-08T13:01:07;100462.69;;;18.03;27.70
81387;BME280;70842;50.744;7.114;2024-03-08T13:03:34;100461.31;;;18.97;26.71
81387;BME280;70842;50.744;7.114;2024-03-08T13:06:05;100455.00;;;18.90;27.18
81387;BME280;70842;50.744;7.114;2024-03-08T13:08:37;100454.19;;;19.04;27.29
81387;BME280;70842;50.744;7.114;2024-03-08T13:11:07;100449.78;;;19.55;27.12